Etusivu
METAR-TAF:

METAR-TAF

Lentoasemat :

Gaylord Regional Airport (Otsego County Airport)

Gaylord, Michigan, Yhdysvallat

Leveyspiiri: 45-00-59N, Pituuspiiri: 084-41-20W, korkeus merenpinnasta: 404 m

Tämänhetkinen sää

Tämä raportti tehtiin 17 minuuttia sitten, kello 05.32 UTC
Tuuli 7 kn luoteesta
Lämpötila -4°C
Kosteus 86%
Ilmanpaine 1002 hPa
Näkyvyys: 4.0 km
Hajanaisia pilviä 700 ft:n korkeudessa
Pilvistä 1100 ft:n korkeudessa
heikkoa lumisadetta, utua

METAR: KGLR 190532Z AUTO 32007KT 2 1/2SM -SN BR SCT007 OVC011 M04/M06 A2958 RMK AO2 SNB0457 P0000 T10441056

Aika: 00:49 (05:49 UTC)


TAF: puuttuu

Säähavainnot ja -ennusteet yli 4000 lentoasemalta (METAR- ja TAF-raportit).

Käytössä olevat sääasemat on merkitty karttaan keltaisilla ja punaisilla pisteillä.

Aseta hiiri pisteen päälle nähdäksesi sääaseman nimen.

Klikkaa sitten nähdäksesi säähavainnot ja -ennusteet.

Kartan vaihtaminen: klikkaa mustalla rastilla varustettuja vihreitä pisteitä, niin voit zoomata sisään; viivalla varustettua vihreää pistettä, niin voit zoomata ulos tai vihreitä nuolia, niin pääset viereisille kartoille.


METAR-TAF: